AFR874 HTKJ-LFPG
Flight info
| Callsign | AFR874 |
|---|---|
| Flight time | N/A |
| Altitude | 36000 |
| Route | OKNE2D OKNES UL434 KV UA727 UTATA UT946 NV UN556 NAK UM308 GWZ UT446 BDR UT124 ALRAP M565 SISID Z822 KUNAK L321 KUNKI P751 METRU TUMBO OVVER RODON VAKSU AMUGO BAXON SRN OMETO TERSI AOSTA ORSUD MOLUS UNKIR GIVRI TINIL TINI9W |
| Aircraft | B772/H-SDE2E3FGHIJ5LORVWXY/LB1D1 |
Departure
| Time | 2026-05-04 00:49 |
|---|---|
| Airport | Kilimanjaro International Airport (HTKJ) |
Arrival
| Time | N/A |
|---|---|
| Airport | Charles de Gaulle International Airport (LFPG) |
| Time | Latitude | Longitude | Altitude | Speed | Heading |
|---|---|---|---|---|---|
| 2026-05-04 00:03 | -3.42541 | 37.06520 | 2932 ft | 0 kts | 87° |
| 2026-05-04 00:41 | -3.42541 | 37.06526 | 2851 ft | 2 kts | 91° |
| 2026-05-04 00:41 | -3.42552 | 37.06548 | 2935 ft | 6 kts | 118° |
| 2026-05-04 00:42 | -3.42587 | 37.06580 | 2931 ft | 8 kts | 156° |
| 2026-05-04 00:42 | -3.42640 | 37.06593 | 2936 ft | 8 kts | 172° |
| 2026-05-04 00:42 | -3.42694 | 37.06593 | 2938 ft | 8 kts | 199° |
| 2026-05-04 00:42 | -3.42722 | 37.06549 | 2932 ft | 8 kts | 258° |
| 2026-05-04 00:43 | -3.42728 | 37.06494 | 2941 ft | 8 kts | 264° |
| 2026-05-04 00:43 | -3.42730 | 37.06439 | 2941 ft | 8 kts | 269° |
| 2026-05-04 00:43 | -3.42732 | 37.06385 | 2941 ft | 8 kts | 268° |
| 2026-05-04 00:43 | -3.42735 | 37.06330 | 2941 ft | 8 kts | 267° |
| 2026-05-04 00:44 | -3.42737 | 37.06276 | 2941 ft | 8 kts | 267° |
| 2026-05-04 00:44 | -3.42740 | 37.06221 | 2931 ft | 8 kts | 267° |
| 2026-05-04 00:44 | -3.42743 | 37.06166 | 2933 ft | 8 kts | 267° |
| 2026-05-04 00:44 | -3.42745 | 37.06111 | 2934 ft | 8 kts | 267° |
| 2026-05-04 00:45 | -3.42748 | 37.06056 | 2940 ft | 8 kts | 267° |
| 2026-05-04 00:45 | -3.42750 | 37.06001 | 2935 ft | 8 kts | 267° |
| 2026-05-04 00:45 | -3.42753 | 37.05947 | 2932 ft | 8 kts | 266° |
| 2026-05-04 00:45 | -3.42767 | 37.05894 | 2935 ft | 8 kts | 244° |
| 2026-05-04 00:46 | -3.42804 | 37.05856 | 2933 ft | 8 kts | 211° |
| 2026-05-04 00:46 | -3.42858 | 37.05845 | 2930 ft | 8 kts | 181° |
| 2026-05-04 00:46 | -3.42912 | 37.05846 | 2932 ft | 8 kts | 177° |
| 2026-05-04 00:46 | -3.42967 | 37.05849 | 2932 ft | 8 kts | 177° |
| 2026-05-04 00:47 | -3.42999 | 37.05857 | 2928 ft | 3 kts | 135° |
| 2026-05-04 00:47 | -3.43007 | 37.05876 | 2930 ft | 3 kts | 105° |
| 2026-05-04 00:47 | -3.43009 | 37.05897 | 2932 ft | 3 kts | 92° |
| 2026-05-04 00:47 | -3.43009 | 37.05915 | 2932 ft | 3 kts | 89° |
| 2026-05-04 00:48 | -3.43008 | 37.05989 | 2933 ft | 26 kts | 88° |
| 2026-05-04 00:48 | -3.42988 | 37.06388 | 2943 ft | 90 kts | 87° |
| 2026-05-04 00:48 | -3.42953 | 37.07223 | 2939 ft | 148 kts | 87° |
| 2026-05-04 00:48 | -3.42904 | 37.08416 | 3015 ft | 188 kts | 88° |
| 2026-05-04 00:49 | -3.42855 | 37.09742 | 3565 ft | 195 kts | 88° |
| 2026-05-04 00:49 | -3.42818 | 37.11115 | 4233 ft | 197 kts | 95° |
| 2026-05-04 00:49 | -3.42976 | 37.12452 | 4968 ft | 191 kts | 100° |
| 2026-05-04 00:49 | -3.43173 | 37.13766 | 5443 ft | 197 kts | 101° |
| 2026-05-04 00:50 | -3.43378 | 37.15142 | 5812 ft | 207 kts | 99° |
| 2026-05-04 00:50 | -3.43574 | 37.16641 | 5942 ft | 226 kts | 98° |
| 2026-05-04 00:50 | -3.43784 | 37.18260 | 6170 ft | 241 kts | 98° |
| 2026-05-04 00:50 | -3.44007 | 37.19962 | 6472 ft | 254 kts | 98° |
| 2026-05-04 00:51 | -3.44249 | 37.21773 | 6722 ft | 268 kts | 98° |
| 2026-05-04 00:51 | -3.44501 | 37.23649 | 7148 ft | 275 kts | 98° |
| 2026-05-04 00:51 | -3.44772 | 37.25573 | 7564 ft | 282 kts | 100° |
| 2026-05-04 00:51 | -3.45163 | 37.27496 | 8133 ft | 282 kts | 103° |
| 2026-05-04 00:52 | -3.45600 | 37.29410 | 8693 ft | 283 kts | 103° |
| 2026-05-04 00:52 | -3.46033 | 37.31311 | 9210 ft | 285 kts | 103° |
| 2026-05-04 00:52 | -3.46466 | 37.33248 | 9705 ft | 287 kts | 103° |
| 2026-05-04 00:52 | -3.46897 | 37.35211 | 10114 ft | 293 kts | 103° |
| 2026-05-04 00:53 | -3.47343 | 37.37265 | 10218 ft | 310 kts | 103° |
| 2026-05-04 00:53 | -3.47807 | 37.39421 | 10324 ft | 325 kts | 103° |
| 2026-05-04 00:53 | -3.48294 | 37.41693 | 10448 ft | 342 kts | 102° |
| 2026-05-04 00:53 | -3.48801 | 37.44068 | 10756 ft | 354 kts | 102° |
| 2026-05-04 00:54 | -3.49320 | 37.46506 | 11242 ft | 362 kts | 102° |
| 2026-05-04 00:54 | -3.49847 | 37.48981 | 11890 ft | 365 kts | 102° |
| 2026-05-04 00:54 | -3.50370 | 37.51442 | 12591 ft | 366 kts | 101° |
| 2026-05-04 00:54 | -3.50530 | 37.53983 | 12956 ft | 374 kts | 82° |
| 2026-05-04 00:55 | -3.49719 | 37.56464 | 13506 ft | 375 kts | 66° |
| 2026-05-04 00:55 | -3.48907 | 37.58945 | 13813 ft | 380 kts | 83° |
| 2026-05-04 00:55 | -3.49032 | 37.61579 | 14303 ft | 379 kts | 99° |
| 2026-05-04 00:55 | -3.49323 | 37.64212 | 14651 ft | 386 kts | 90° |
| 2026-05-04 00:56 | -3.49083 | 37.66897 | 15211 ft | 389 kts | 79° |
| 2026-05-04 00:56 | -3.48312 | 37.69495 | 15874 ft | 391 kts | 68° |
| 2026-05-04 00:56 | -3.47055 | 37.71910 | 16468 ft | 394 kts | 57° |
| 2026-05-04 00:56 | -3.45373 | 37.74039 | 17030 ft | 398 kts | 47° |
| 2026-05-04 00:57 | -3.43333 | 37.75937 | 17552 ft | 402 kts | 41° |
| 2026-05-04 00:57 | -3.41153 | 37.77698 | 18005 ft | 402 kts | 35° |
| 2026-05-04 00:57 | -3.38572 | 37.78845 | 18262 ft | 414 kts | 12° |
| 2026-05-04 00:57 | -3.35683 | 37.78878 | 18682 ft | 420 kts | 349° |
| 2026-05-04 00:58 | -3.32936 | 37.77929 | 19090 ft | 417 kts | 339° |
| 2026-05-04 00:58 | -3.30185 | 37.76928 | 19350 ft | 424 kts | 343° |
| 2026-05-04 00:58 | -3.27391 | 37.76061 | 19739 ft | 427 kts | 345° |
| 2026-05-04 00:58 | -3.24532 | 37.75239 | 20214 ft | 428 kts | 345° |
| 2026-05-04 00:59 | -3.21660 | 37.74434 | 20667 ft | 430 kts | 345° |
| 2026-05-04 00:59 | -3.18773 | 37.73626 | 21096 ft | 432 kts | 345° |
| 2026-05-04 00:59 | -3.15879 | 37.72810 | 21513 ft | 434 kts | 345° |
| 2026-05-04 00:59 | -3.12957 | 37.71980 | 21917 ft | 437 kts | 345° |
| 2026-05-04 01:00 | -3.10031 | 37.71144 | 22309 ft | 440 kts | 345° |
| 2026-05-04 01:00 | -3.07081 | 37.70297 | 22678 ft | 442 kts | 345° |
| 2026-05-04 01:00 | -3.04153 | 37.69454 | 23061 ft | 445 kts | 345° |
| 2026-05-04 01:00 | -3.01168 | 37.68594 | 23435 ft | 448 kts | 345° |
| 2026-05-04 01:01 | -2.98160 | 37.67728 | 23739 ft | 452 kts | 345° |
| 2026-05-04 01:01 | -2.95133 | 37.66855 | 24066 ft | 453 kts | 345° |
| 2026-05-04 01:01 | -2.92101 | 37.65982 | 24421 ft | 454 kts | 345° |
| 2026-05-04 01:01 | -2.89060 | 37.65106 | 24748 ft | 456 kts | 345° |
| 2026-05-04 01:02 | -2.86003 | 37.64226 | 25038 ft | 458 kts | 345° |
| 2026-05-04 01:02 | -2.82933 | 37.63342 | 25362 ft | 460 kts | 345° |
| 2026-05-04 01:02 | -2.79892 | 37.62467 | 25679 ft | 462 kts | 345° |
| 2026-05-04 01:02 | -2.76802 | 37.61578 | 25983 ft | 464 kts | 345° |
| 2026-05-04 01:03 | -2.73693 | 37.60683 | 26300 ft | 466 kts | 345° |
| 2026-05-04 01:03 | -2.70571 | 37.59784 | 26590 ft | 468 kts | 345° |
| 2026-05-04 01:03 | -2.67431 | 37.58881 | 26893 ft | 470 kts | 345° |
| 2026-05-04 01:03 | -2.64279 | 37.57974 | 27213 ft | 472 kts | 345° |
| 2026-05-04 01:04 | -2.61118 | 37.57064 | 27540 ft | 474 kts | 345° |
| 2026-05-04 01:04 | -2.57945 | 37.56151 | 27844 ft | 475 kts | 345° |
| 2026-05-04 01:04 | -2.54758 | 37.55234 | 28148 ft | 478 kts | 345° |
| 2026-05-04 01:04 | -2.51600 | 37.54325 | 28424 ft | 480 kts | 345° |
| 2026-05-04 01:05 | -2.48385 | 37.53400 | 28709 ft | 482 kts | 345° |
| 2026-05-04 01:05 | -2.45157 | 37.52472 | 28998 ft | 484 kts | 345° |
| 2026-05-04 01:05 | -2.41918 | 37.51540 | 29292 ft | 485 kts | 345° |
| 2026-05-04 01:05 | -2.38666 | 37.50605 | 29592 ft | 487 kts | 345° |
| 2026-05-04 01:06 | -2.35407 | 37.49667 | 29890 ft | 489 kts | 345° |
| 2026-05-04 01:06 | -2.32133 | 37.48725 | 30158 ft | 491 kts | 345° |
| 2026-05-04 01:06 | -2.28846 | 37.47780 | 30396 ft | 492 kts | 345° |
| 2026-05-04 01:06 | -2.25591 | 37.46844 | 30629 ft | 494 kts | 345° |
| 2026-05-04 01:07 | -2.22282 | 37.45892 | 30849 ft | 496 kts | 345° |
| 2026-05-04 01:07 | -2.18962 | 37.44937 | 31061 ft | 497 kts | 345° |
| 2026-05-04 01:07 | -2.15631 | 37.43980 | 31281 ft | 499 kts | 345° |
| 2026-05-04 01:07 | -2.12319 | 37.43027 | 31471 ft | 500 kts | 345° |
| 2026-05-04 01:08 | -2.08968 | 37.42064 | 31684 ft | 502 kts | 345° |
| 2026-05-04 01:08 | -2.05607 | 37.41098 | 31883 ft | 503 kts | 345° |
| 2026-05-04 01:08 | -2.02283 | 37.40142 | 32081 ft | 504 kts | 345° |
| 2026-05-04 01:08 | -1.98916 | 37.39174 | 32292 ft | 505 kts | 345° |
| 2026-05-04 01:09 | -1.95534 | 37.38201 | 32549 ft | 504 kts | 346° |
| 2026-05-04 01:09 | -1.92165 | 37.37232 | 32823 ft | 503 kts | 346° |
| 2026-05-04 01:09 | -1.88809 | 37.36267 | 33098 ft | 502 kts | 346° |
| 2026-05-04 01:09 | -1.85450 | 37.35301 | 33364 ft | 502 kts | 346° |
| 2026-05-04 01:10 | -1.82093 | 37.34337 | 33617 ft | 502 kts | 346° |
| 2026-05-04 01:10 | -1.78739 | 37.33372 | 33868 ft | 502 kts | 346° |
| 2026-05-04 01:10 | -1.75430 | 37.32422 | 34113 ft | 501 kts | 346° |
| 2026-05-04 01:10 | -1.72080 | 37.31459 | 34351 ft | 500 kts | 346° |
| 2026-05-04 01:11 | -1.68737 | 37.30498 | 34585 ft | 500 kts | 346° |
| 2026-05-04 01:11 | -1.65398 | 37.29539 | 34844 ft | 499 kts | 346° |
| 2026-05-04 01:11 | -1.62071 | 37.28582 | 35072 ft | 498 kts | 346° |
| 2026-05-04 01:11 | -1.58742 | 37.27624 | 35305 ft | 498 kts | 346° |
| 2026-05-04 01:12 | -1.55408 | 37.26667 | 35535 ft | 497 kts | 346° |
| 2026-05-04 01:12 | -1.52095 | 37.25715 | 35770 ft | 496 kts | 347° |
| 2026-05-04 01:12 | -1.48774 | 37.24761 | 35938 ft | 497 kts | 347° |
| 2026-05-04 01:13 | -1.42141 | 37.22857 | 36097 ft | 501 kts | 347° |
| 2026-05-04 01:13 | -1.35433 | 37.20931 | 36146 ft | 500 kts | 347° |
| 2026-05-04 01:14 | -1.28791 | 37.19019 | 36153 ft | 494 kts | 347° |
| 2026-05-04 01:14 | -1.22192 | 37.17123 | 36160 ft | 492 kts | 347° |
| 2026-05-04 01:15 | -1.15662 | 37.15248 | 36157 ft | 492 kts | 347° |
| 2026-05-04 01:15 | -1.09079 | 37.13358 | 36151 ft | 493 kts | 347° |
| 2026-05-04 01:16 | -1.02484 | 37.11464 | 36135 ft | 494 kts | 347° |
| 2026-05-04 01:16 | -0.95872 | 37.09565 | 36134 ft | 495 kts | 347° |
| 2026-05-04 01:17 | -0.89243 | 37.07662 | 36133 ft | 496 kts | 347° |
| 2026-05-04 01:17 | -0.82651 | 37.05768 | 36139 ft | 497 kts | 347° |
| 2026-05-04 01:18 | -0.75986 | 37.03853 | 36152 ft | 498 kts | 347° |
| 2026-05-04 01:18 | -0.69331 | 37.01942 | 36157 ft | 498 kts | 347° |
| 2026-05-04 01:19 | -0.62667 | 37.00028 | 36164 ft | 498 kts | 347° |
| 2026-05-04 01:19 | -0.56046 | 36.98127 | 36162 ft | 498 kts | 346° |
| 2026-05-04 01:20 | -0.49384 | 36.96214 | 36163 ft | 498 kts | 346° |
| 2026-05-04 01:20 | -0.42728 | 36.94302 | 36169 ft | 497 kts | 346° |
| 2026-05-04 01:21 | -0.36083 | 36.92394 | 36160 ft | 497 kts | 346° |
| 2026-05-04 01:21 | -0.29482 | 36.90499 | 36158 ft | 497 kts | 346° |
| 2026-05-04 01:22 | -0.22842 | 36.88592 | 36154 ft | 496 kts | 346° |
| 2026-05-04 01:22 | -0.16207 | 36.86687 | 36151 ft | 496 kts | 346° |
| 2026-05-04 01:23 | -0.09576 | 36.84783 | 36157 ft | 496 kts | 346° |
| 2026-05-04 01:23 | -0.02996 | 36.82894 | 36155 ft | 496 kts | 346° |
| 2026-05-04 01:24 | 0.03638 | 36.80989 | 36145 ft | 496 kts | 346° |
| 2026-05-04 01:24 | 0.10277 | 36.79083 | 36143 ft | 496 kts | 346° |
| 2026-05-04 01:25 | 0.16921 | 36.77175 | 36130 ft | 497 kts | 346° |
| 2026-05-04 01:25 | 0.23522 | 36.75279 | 36131 ft | 497 kts | 346° |
| 2026-05-04 01:26 | 0.30172 | 36.73370 | 36130 ft | 497 kts | 346° |
| 2026-05-04 01:26 | 0.36819 | 36.71461 | 36116 ft | 497 kts | 346° |
| 2026-05-04 01:27 | 0.43471 | 36.69551 | 36124 ft | 497 kts | 346° |
| 2026-05-04 01:27 | 0.50077 | 36.67654 | 36113 ft | 498 kts | 346° |
| 2026-05-04 01:28 | 0.56735 | 36.65742 | 36107 ft | 498 kts | 346° |
| 2026-05-04 01:28 | 0.63392 | 36.63830 | 36104 ft | 498 kts | 346° |
| 2026-05-04 01:29 | 0.70046 | 36.61919 | 36099 ft | 497 kts | 346° |
| 2026-05-04 01:29 | 0.76651 | 36.60022 | 36088 ft | 497 kts | 346° |
| 2026-05-04 01:30 | 0.83298 | 36.58113 | 36088 ft | 497 kts | 346° |
| 2026-05-04 01:30 | 0.89941 | 36.56204 | 36081 ft | 497 kts | 346° |
| 2026-05-04 01:31 | 0.96599 | 36.54442 | 36062 ft | 493 kts | 354° |
| 2026-05-04 01:31 | 1.03380 | 36.54497 | 36062 ft | 486 kts | 12° |
| 2026-05-04 01:32 | 1.09811 | 36.56248 | 36068 ft | 482 kts | 19° |
| 2026-05-04 01:32 | 1.16234 | 36.58218 | 36062 ft | 484 kts | 19° |
| 2026-05-04 01:33 | 1.22681 | 36.60155 | 36049 ft | 485 kts | 19° |
| 2026-05-04 01:33 | 1.29163 | 36.62069 | 36048 ft | 486 kts | 18° |
| 2026-05-04 01:34 | 1.35620 | 36.63966 | 36030 ft | 487 kts | 19° |
| 2026-05-04 01:34 | 1.42133 | 36.65879 | 36048 ft | 488 kts | 19° |
| 2026-05-04 01:35 | 1.48657 | 36.67798 | 36031 ft | 489 kts | 19° |
| 2026-05-04 01:35 | 1.55075 | 36.69686 | 36030 ft | 489 kts | 18° |
| 2026-05-04 01:36 | 1.61567 | 36.71596 | 36019 ft | 489 kts | 18° |
| 2026-05-04 01:36 | 1.68099 | 36.73518 | 36020 ft | 489 kts | 18° |
| 2026-05-04 01:37 | 1.74626 | 36.75439 | 36027 ft | 489 kts | 18° |
| 2026-05-04 01:37 | 1.81146 | 36.77358 | 36027 ft | 488 kts | 18° |
| 2026-05-04 01:38 | 1.87614 | 36.79262 | 36013 ft | 488 kts | 18° |
| 2026-05-04 01:38 | 1.94113 | 36.81175 | 36020 ft | 487 kts | 18° |
| 2026-05-04 01:39 | 2.00618 | 36.83090 | 36012 ft | 487 kts | 18° |
| 2026-05-04 01:39 | 2.07120 | 36.85003 | 36021 ft | 487 kts | 18° |
| 2026-05-04 01:40 | 2.13582 | 36.86906 | 36008 ft | 488 kts | 18° |
| 2026-05-04 01:40 | 2.20093 | 36.88824 | 35995 ft | 488 kts | 18° |
| 2026-05-04 01:41 | 2.26599 | 36.90740 | 35996 ft | 488 kts | 18° |
| 2026-05-04 01:41 | 2.33110 | 36.92657 | 35988 ft | 488 kts | 18° |
| 2026-05-04 01:42 | 2.39576 | 36.94562 | 35997 ft | 488 kts | 18° |
| 2026-05-04 01:42 | 2.46087 | 36.96479 | 35976 ft | 488 kts | 19° |
| 2026-05-04 01:43 | 2.52599 | 36.98395 | 35985 ft | 488 kts | 18° |
| 2026-05-04 01:43 | 2.59111 | 37.00316 | 35983 ft | 488 kts | 18° |
| 2026-05-04 01:44 | 2.64619 | 37.01940 | 35982 ft | 488 kts | 18° |
| 2026-05-04 01:44 | 2.71141 | 37.03862 | 35973 ft | 489 kts | 18° |
| 2026-05-04 01:45 | 2.77656 | 37.05782 | 35972 ft | 488 kts | 18° |
| 2026-05-04 01:45 | 2.87433 | 37.08664 | 35966 ft | 488 kts | 18° |
| 2026-05-04 01:46 | 2.93946 | 37.10583 | 35971 ft | 488 kts | 18° |
| 2026-05-04 01:46 | 3.00412 | 37.12490 | 35967 ft | 488 kts | 18° |
| 2026-05-04 01:47 | 3.06913 | 37.14407 | 35961 ft | 488 kts | 18° |
| 2026-05-04 01:47 | 3.13422 | 37.16326 | 35961 ft | 488 kts | 19° |
| 2026-05-04 01:48 | 3.19887 | 37.18234 | 35961 ft | 487 kts | 17° |
| 2026-05-04 01:48 | 3.26397 | 37.20154 | 35960 ft | 488 kts | 18° |
| 2026-05-04 01:49 | 3.32896 | 37.22071 | 35958 ft | 488 kts | 18° |
| 2026-05-04 01:49 | 3.39412 | 37.23995 | 35961 ft | 488 kts | 18° |
| 2026-05-04 01:50 | 3.45928 | 37.25918 | 35957 ft | 488 kts | 18° |
| 2026-05-04 01:50 | 3.52404 | 37.27829 | 35964 ft | 488 kts | 17° |
| 2026-05-04 01:51 | 3.58924 | 37.29753 | 35966 ft | 488 kts | 18° |
| 2026-05-04 01:51 | 3.65444 | 37.31678 | 35966 ft | 488 kts | 18° |
| 2026-05-04 01:52 | 3.71962 | 37.33604 | 35977 ft | 488 kts | 17° |
| 2026-05-04 01:52 | 3.78431 | 37.35514 | 35977 ft | 488 kts | 17° |
| 2026-05-04 01:53 | 3.84950 | 37.37440 | 35975 ft | 488 kts | 17° |
| 2026-05-04 01:53 | 3.91469 | 37.39366 | 35984 ft | 488 kts | 17° |
| 2026-05-04 01:54 | 3.97985 | 37.41292 | 35980 ft | 488 kts | 17° |
| 2026-05-04 01:54 | 4.04473 | 37.43145 | 35991 ft | 488 kts | 16° |
| 2026-05-04 01:55 | 4.11036 | 37.44899 | 35991 ft | 488 kts | 16° |
| 2026-05-04 01:55 | 4.17594 | 37.46646 | 36004 ft | 488 kts | 16° |
| 2026-05-04 01:56 | 4.24153 | 37.48410 | 36015 ft | 488 kts | 16° |
| 2026-05-04 01:56 | 4.30709 | 37.50184 | 36017 ft | 488 kts | 16° |
| 2026-05-04 01:57 | 4.37222 | 37.51949 | 36028 ft | 488 kts | 16° |
| 2026-05-04 01:57 | 4.43778 | 37.53725 | 36028 ft | 488 kts | 16° |
| 2026-05-04 01:58 | 4.50334 | 37.55500 | 36038 ft | 488 kts | 16° |
| 2026-05-04 01:58 | 4.56887 | 37.57275 | 36040 ft | 488 kts | 15° |
| 2026-05-04 01:59 | 4.63385 | 37.59035 | 36046 ft | 487 kts | 15° |
| 2026-05-04 01:59 | 4.69928 | 37.60808 | 36047 ft | 487 kts | 15° |
| 2026-05-04 02:00 | 4.76467 | 37.62580 | 36051 ft | 486 kts | 16° |
| 2026-05-04 02:00 | 4.83001 | 37.64351 | 36057 ft | 486 kts | 15° |
| 2026-05-04 02:01 | 4.89525 | 37.66120 | 36056 ft | 486 kts | 15° |
| 2026-05-04 02:01 | 4.96013 | 37.67880 | 36057 ft | 486 kts | 15° |
| 2026-05-04 02:02 | 5.02548 | 37.69652 | 36057 ft | 486 kts | 15° |
| 2026-05-04 02:02 | 5.09083 | 37.71425 | 36056 ft | 486 kts | 15° |
| 2026-05-04 02:03 | 5.15576 | 37.73187 | 36061 ft | 487 kts | 16° |
| 2026-05-04 02:03 | 5.22111 | 37.74960 | 36070 ft | 487 kts | 16° |
| 2026-05-04 02:04 | 5.28669 | 37.76741 | 36065 ft | 488 kts | 16° |
| 2026-05-04 02:04 | 5.35220 | 37.78519 | 36069 ft | 488 kts | 16° |
| 2026-05-04 02:05 | 5.41783 | 37.80302 | 36075 ft | 489 kts | 16° |
| 2026-05-04 02:05 | 5.48309 | 37.82074 | 36081 ft | 489 kts | 16° |
| 2026-05-04 02:06 | 5.54884 | 37.83861 | 36078 ft | 490 kts | 16° |
| 2026-05-04 02:06 | 5.61461 | 37.85648 | 36078 ft | 490 kts | 16° |
| 2026-05-04 02:07 | 5.68031 | 37.87433 | 36075 ft | 489 kts | 16° |
| 2026-05-04 02:07 | 5.74605 | 37.89221 | 36074 ft | 489 kts | 16° |
| 2026-05-04 02:08 | 5.81134 | 37.90997 | 36081 ft | 489 kts | 16° |
| 2026-05-04 02:08 | 5.87702 | 37.92783 | 36081 ft | 489 kts | 16° |
| 2026-05-04 02:09 | 5.94264 | 37.94569 | 36084 ft | 488 kts | 16° |
| 2026-05-04 02:09 | 6.00820 | 37.96353 | 36079 ft | 488 kts | 16° |
| 2026-05-04 02:10 | 6.07326 | 37.98124 | 36082 ft | 488 kts | 16° |
| 2026-05-04 02:10 | 6.13884 | 37.99910 | 36077 ft | 488 kts | 16° |
| 2026-05-04 02:11 | 6.20447 | 38.01698 | 36087 ft | 489 kts | 16° |
| 2026-05-04 02:11 | 6.27016 | 38.03487 | 36076 ft | 489 kts | 16° |
| 2026-05-04 02:12 | 6.33549 | 38.05268 | 36074 ft | 490 kts | 16° |
| 2026-05-04 02:12 | 6.40133 | 38.07063 | 36070 ft | 490 kts | 16° |
| 2026-05-04 02:13 | 6.46712 | 38.08857 | 36061 ft | 490 kts | 16° |
| 2026-05-04 02:13 | 6.53299 | 38.10653 | 36073 ft | 490 kts | 16° |
| 2026-05-04 02:14 | 6.59843 | 38.12430 | 36069 ft | 490 kts | 15° |
| 2026-05-04 02:14 | 6.66434 | 38.14214 | 36071 ft | 490 kts | 15° |
| 2026-05-04 02:15 | 6.73026 | 38.16000 | 36073 ft | 491 kts | 15° |
| 2026-05-04 02:15 | 6.79618 | 38.17788 | 36074 ft | 491 kts | 15° |
| 2026-05-04 02:16 | 6.86159 | 38.19563 | 36089 ft | 490 kts | 15° |
| 2026-05-04 02:16 | 6.92750 | 38.21352 | 36082 ft | 490 kts | 15° |
| 2026-05-04 02:17 | 6.99338 | 38.23141 | 36090 ft | 490 kts | 15° |
| 2026-05-04 02:17 | 7.05926 | 38.24931 | 36089 ft | 490 kts | 15° |
| 2026-05-04 02:18 | 7.12470 | 38.26708 | 36088 ft | 490 kts | 15° |
| 2026-05-04 02:18 | 7.19056 | 38.28498 | 36084 ft | 490 kts | 15° |
| 2026-05-04 02:19 | 7.25635 | 38.30287 | 36090 ft | 490 kts | 15° |
| 2026-05-04 02:19 | 7.32223 | 38.32079 | 36087 ft | 490 kts | 15° |
| 2026-05-04 02:20 | 7.38814 | 38.33872 | 36087 ft | 491 kts | 15° |
| 2026-05-04 02:20 | 7.45362 | 38.35654 | 36090 ft | 491 kts | 15° |
| 2026-05-04 02:21 | 7.51961 | 38.37406 | 36085 ft | 491 kts | 14° |
| 2026-05-04 02:21 | 7.58612 | 38.39043 | 36084 ft | 492 kts | 14° |
| 2026-05-04 02:22 | 7.65260 | 38.40669 | 36080 ft | 491 kts | 14° |
| 2026-05-04 02:22 | 7.71850 | 38.42301 | 36081 ft | 491 kts | 14° |
| 2026-05-04 02:23 | 7.78489 | 38.43953 | 36089 ft | 491 kts | 14° |
| 2026-05-04 02:23 | 7.85121 | 38.45606 | 36096 ft | 491 kts | 14° |
| 2026-05-04 02:24 | 7.91746 | 38.47256 | 36099 ft | 490 kts | 14° |
| 2026-05-04 02:24 | 7.98320 | 38.48893 | 36095 ft | 490 kts | 14° |
| 2026-05-04 02:25 | 8.04924 | 38.50539 | 36097 ft | 489 kts | 14° |
| 2026-05-04 02:25 | 8.11530 | 38.52186 | 36103 ft | 489 kts | 14° |
| 2026-05-04 02:26 | 8.18134 | 38.53832 | 36104 ft | 489 kts | 14° |
| 2026-05-04 02:26 | 8.24691 | 38.55470 | 36111 ft | 489 kts | 14° |
| 2026-05-04 02:27 | 8.31285 | 38.57119 | 36118 ft | 489 kts | 14° |
| 2026-05-04 02:27 | 8.37883 | 38.58769 | 36118 ft | 488 kts | 14° |
| 2026-05-04 02:28 | 8.44479 | 38.60420 | 36121 ft | 488 kts | 14° |
| 2026-05-04 02:28 | 8.51031 | 38.62060 | 36119 ft | 488 kts | 14° |
| 2026-05-04 02:29 | 8.57623 | 38.63711 | 36121 ft | 488 kts | 14° |
| 2026-05-04 02:29 | 8.64213 | 38.65361 | 36126 ft | 488 kts | 14° |
| 2026-05-04 02:30 | 8.70806 | 38.67013 | 36114 ft | 488 kts | 14° |
| 2026-05-04 02:30 | 8.77359 | 38.68656 | 36129 ft | 489 kts | 14° |
| 2026-05-04 02:31 | 8.83959 | 38.70311 | 36122 ft | 489 kts | 14° |
| 2026-05-04 02:31 | 8.90573 | 38.71971 | 36127 ft | 490 kts | 14° |
| 2026-05-04 02:32 | 8.97194 | 38.73633 | 36128 ft | 490 kts | 14° |
| 2026-05-04 02:32 | 9.03770 | 38.75284 | 36140 ft | 490 kts | 14° |
| 2026-05-04 02:33 | 9.10474 | 38.75971 | 36144 ft | 488 kts | 352° |
| 2026-05-04 02:33 | 9.13770 | 38.75156 | 36151 ft | 489 kts | 339° |
| 2026-05-04 02:33 | 9.16809 | 38.73641 | 36148 ft | 486 kts | 329° |
| 2026-05-04 02:34 | 9.22647 | 38.70141 | 36151 ft | 489 kts | 329° |
| 2026-05-04 02:34 | 9.28546 | 38.66666 | 36157 ft | 492 kts | 330° |
| 2026-05-04 02:35 | 9.34457 | 38.63237 | 36154 ft | 494 kts | 330° |
| 2026-05-04 02:35 | 9.40430 | 38.59792 | 36148 ft | 495 kts | 330° |
| 2026-05-04 02:36 | 9.46420 | 38.56337 | 36145 ft | 495 kts | 330° |
| 2026-05-04 02:36 | 9.52407 | 38.52879 | 36142 ft | 495 kts | 330° |
| 2026-05-04 02:37 | 9.58383 | 38.49424 | 36138 ft | 494 kts | 330° |
| 2026-05-04 02:37 | 9.64303 | 38.46001 | 36122 ft | 492 kts | 330° |
| 2026-05-04 02:38 | 9.70240 | 38.42566 | 36125 ft | 491 kts | 330° |
| 2026-05-04 02:38 | 9.76169 | 38.39134 | 36107 ft | 490 kts | 330° |
| 2026-05-04 02:39 | 9.82087 | 38.35708 | 36106 ft | 489 kts | 330° |
| 2026-05-04 02:39 | 9.87955 | 38.32309 | 36091 ft | 489 kts | 330° |
| 2026-05-04 02:40 | 9.93854 | 38.28890 | 36096 ft | 488 kts | 330° |
| 2026-05-04 02:40 | 9.99744 | 38.25475 | 36089 ft | 488 kts | 330° |
| 2026-05-04 02:41 | 10.05648 | 38.22051 | 36088 ft | 488 kts | 330° |
| 2026-05-04 02:41 | 10.11503 | 38.18654 | 36096 ft | 488 kts | 330° |
| 2026-05-04 02:42 | 10.17396 | 38.15233 | 36090 ft | 488 kts | 330° |
| 2026-05-04 02:42 | 10.23279 | 38.11817 | 36094 ft | 487 kts | 330° |
| 2026-05-04 02:43 | 10.29151 | 38.08405 | 36109 ft | 486 kts | 330° |
| 2026-05-04 02:43 | 10.34967 | 38.05024 | 36107 ft | 485 kts | 330° |
| 2026-05-04 02:44 | 10.40821 | 38.01620 | 36126 ft | 485 kts | 330° |
| 2026-05-04 02:44 | 10.46671 | 37.98216 | 36128 ft | 484 kts | 329° |
| 2026-05-04 02:45 | 10.52521 | 37.94811 | 36143 ft | 485 kts | 329° |
| 2026-05-04 02:45 | 10.58336 | 37.91426 | 36149 ft | 485 kts | 329° |
| 2026-05-04 02:46 | 10.64197 | 37.88019 | 36141 ft | 485 kts | 329° |
| 2026-05-04 02:46 | 10.70053 | 37.84612 | 36153 ft | 485 kts | 329° |
| 2026-05-04 02:47 | 10.75920 | 37.81195 | 36143 ft | 486 kts | 330° |
| 2026-05-04 02:47 | 10.81755 | 37.77796 | 36144 ft | 487 kts | 329° |
| 2026-05-04 02:48 | 10.87635 | 37.74368 | 36122 ft | 487 kts | 329° |
| 2026-05-04 02:48 | 10.93511 | 37.70942 | 36123 ft | 487 kts | 329° |
| 2026-05-04 02:49 | 10.99396 | 37.67509 | 36107 ft | 487 kts | 329° |
| 2026-05-04 02:49 | 11.05280 | 37.64074 | 36101 ft | 487 kts | 330° |
| 2026-05-04 02:50 | 11.11122 | 37.60662 | 36102 ft | 487 kts | 329° |
| 2026-05-04 02:50 | 11.16990 | 37.57234 | 36090 ft | 486 kts | 330° |
| 2026-05-04 02:51 | 11.22864 | 37.53800 | 36094 ft | 486 kts | 330° |
| 2026-05-04 02:51 | 11.28721 | 37.50376 | 36080 ft | 486 kts | 329° |
| 2026-05-04 02:52 | 11.34541 | 37.46970 | 36081 ft | 485 kts | 329° |
| 2026-05-04 02:52 | 11.40395 | 37.43543 | 36065 ft | 485 kts | 329° |
| 2026-05-04 02:53 | 11.46248 | 37.40115 | 36068 ft | 485 kts | 329° |
| 2026-05-04 02:53 | 11.52101 | 37.36685 | 36053 ft | 485 kts | 329° |
| 2026-05-04 02:54 | 11.57914 | 37.33277 | 36056 ft | 485 kts | 329° |
| 2026-05-04 02:54 | 11.63789 | 37.29898 | 36045 ft | 485 kts | 331° |
| 2026-05-04 02:55 | 11.72797 | 37.25155 | 36049 ft | 486 kts | 332° |
| 2026-05-04 02:56 | 11.78767 | 37.22015 | 36044 ft | 486 kts | 332° |
| 2026-05-04 02:56 | 11.84763 | 37.18825 | 36041 ft | 486 kts | 332° |
| 2026-05-04 02:57 | 11.90751 | 37.15625 | 36043 ft | 486 kts | 332° |
| 2026-05-04 02:57 | 11.96730 | 37.12428 | 36042 ft | 485 kts | 332° |
| 2026-05-04 02:58 | 12.02714 | 37.09229 | 36035 ft | 485 kts | 332° |
| 2026-05-04 02:58 | 12.08655 | 37.06052 | 36033 ft | 485 kts | 332° |
| 2026-05-04 02:59 | 12.14631 | 37.02854 | 36014 ft | 485 kts | 332° |
| 2026-05-04 02:59 | 12.20604 | 36.99657 | 36016 ft | 484 kts | 332° |
| 2026-05-04 03:00 | 12.26573 | 36.96460 | 36016 ft | 484 kts | 331° |
| 2026-05-04 03:00 | 12.32494 | 36.93286 | 35992 ft | 483 kts | 332° |
| 2026-05-04 03:01 | 12.38445 | 36.90095 | 35990 ft | 483 kts | 332° |
| 2026-05-04 03:01 | 12.44402 | 36.86900 | 35974 ft | 483 kts | 332° |
| 2026-05-04 03:02 | 12.50361 | 36.83701 | 35954 ft | 483 kts | 332° |
| 2026-05-04 03:02 | 12.56280 | 36.80523 | 35949 ft | 484 kts | 332° |
| 2026-05-04 03:03 | 12.62242 | 36.77319 | 35948 ft | 484 kts | 332° |
| 2026-05-04 03:03 | 12.68201 | 36.74115 | 35915 ft | 484 kts | 331° |
| 2026-05-04 03:04 | 12.74184 | 36.70926 | 35930 ft | 485 kts | 332° |
| 2026-05-04 03:04 | 12.80181 | 36.67835 | 35917 ft | 486 kts | 332° |
| 2026-05-04 03:05 | 12.86223 | 36.64716 | 35908 ft | 486 kts | 332° |
| 2026-05-04 03:05 | 12.92263 | 36.61579 | 35904 ft | 487 kts | 332° |
| 2026-05-04 03:06 | 12.98296 | 36.58438 | 35907 ft | 487 kts | 332° |
| 2026-05-04 03:06 | 13.04303 | 36.55308 | 35897 ft | 487 kts | 332° |
| 2026-05-04 03:07 | 13.10335 | 36.52163 | 35896 ft | 487 kts | 332° |
| 2026-05-04 03:07 | 13.16376 | 36.49012 | 35886 ft | 487 kts | 332° |
| 2026-05-04 03:08 | 13.22415 | 36.45861 | 35888 ft | 487 kts | 332° |
| 2026-05-04 03:08 | 13.28410 | 36.42730 | 35876 ft | 486 kts | 332° |
| 2026-05-04 03:09 | 13.34444 | 36.39577 | 35874 ft | 487 kts | 332° |
| 2026-05-04 03:09 | 13.40471 | 36.36426 | 35876 ft | 487 kts | 332° |
| 2026-05-04 03:10 | 13.46505 | 36.33270 | 35868 ft | 487 kts | 332° |
| 2026-05-04 03:10 | 13.52538 | 36.30112 | 35871 ft | 487 kts | 332° |
| 2026-05-04 03:11 | 13.58531 | 36.26973 | 35862 ft | 487 kts | 332° |
| 2026-05-04 03:11 | 13.64557 | 36.23815 | 35862 ft | 487 kts | 331° |
| 2026-05-04 03:12 | 13.70724 | 36.20931 | 35868 ft | 487 kts | 336° |
| 2026-05-04 03:12 | 13.77005 | 36.18278 | 35860 ft | 488 kts | 336° |
| 2026-05-04 03:13 | 13.83234 | 36.15647 | 35867 ft | 488 kts | 336° |
| 2026-05-04 03:13 | 13.89504 | 36.12972 | 35863 ft | 488 kts | 336° |
| 2026-05-04 03:14 | 13.95769 | 36.10285 | 35860 ft | 488 kts | 336° |
| 2026-05-04 03:14 | 14.02032 | 36.07595 | 35864 ft | 488 kts | 336° |
| 2026-05-04 03:15 | 14.08289 | 36.04908 | 35864 ft | 488 kts | 335° |
| 2026-05-04 03:15 | 14.14512 | 36.02235 | 35865 ft | 488 kts | 335° |
| 2026-05-04 03:16 | 14.20776 | 35.99543 | 35861 ft | 488 kts | 336° |
| 2026-05-04 03:16 | 14.27040 | 35.96848 | 35864 ft | 488 kts | 335° |
| 2026-05-04 03:17 | 14.33306 | 35.94152 | 35862 ft | 488 kts | 335° |
| 2026-05-04 03:17 | 14.39522 | 35.91475 | 35858 ft | 488 kts | 335° |
| 2026-05-04 03:18 | 14.45795 | 35.88772 | 35866 ft | 488 kts | 335° |
| 2026-05-04 03:18 | 14.52054 | 35.86074 | 35861 ft | 488 kts | 335° |
| 2026-05-04 03:19 | 14.58319 | 35.83371 | 35862 ft | 488 kts | 335° |
| 2026-05-04 03:19 | 14.64540 | 35.80685 | 35860 ft | 488 kts | 335° |
| 2026-05-04 03:20 | 14.70800 | 35.77981 | 35861 ft | 487 kts | 335° |
| 2026-05-04 03:20 | 14.77057 | 35.75276 | 35857 ft | 487 kts | 335° |
| 2026-05-04 03:21 | 14.83304 | 35.72574 | 35859 ft | 487 kts | 335° |
| 2026-05-04 03:21 | 14.89563 | 35.69866 | 35860 ft | 487 kts | 335° |
| 2026-05-04 03:22 | 14.95765 | 35.67183 | 35862 ft | 487 kts | 335° |
| 2026-05-04 03:22 | 15.02013 | 35.64478 | 35861 ft | 487 kts | 335° |
| 2026-05-04 03:23 | 15.08260 | 35.61771 | 35864 ft | 487 kts | 335° |
| 2026-05-04 03:23 | 15.09272 | 35.61332 | 35859 ft | 487 kts | 335° |